sensor_id;sensor_type;location;lat;lon;timestamp;P1;durP1;ratioP1;P2;durP2;ratioP2
78871;SDS011;68247;43.514;1.502;2024-03-02T00:01:03;9.95;;;4.85;;
78871;SDS011;68247;43.514;1.502;2024-03-02T00:03:28;11.53;;;6.83;;
78871;SDS011;68247;43.514;1.502;2024-03-02T00:05:54;15.73;;;7.50;;
78871;SDS011;68247;43.514;1.502;2024-03-02T00:08:23;12.38;;;7.32;;
78871;SDS011;68247;43.514;1.502;2024-03-02T00:10:56;13.83;;;6.83;;
78871;SDS011;68247;43.514;1.502;2024-03-02T00:13:22;14.27;;;6.95;;
78871;SDS011;68247;43.514;1.502;2024-03-02T00:15:48;13.67;;;7.37;;
78871;SDS011;68247;43.514;1.502;2024-03-02T00:20:49;10.52;;;6.32;;
78871;SDS011;68247;43.514;1.502;2024-03-02T00:23:18;11.88;;;6.70;;
78871;SDS011;68247;43.514;1.502;2024-03-02T00:25:46;13.27;;;7.03;;
78871;SDS011;68247;43.514;1.502;2024-03-02T00:28:14;13.05;;;7.32;;
78871;SDS011;68247;43.514;1.502;2024-03-02T00:33:37;12.68;;;6.70;;
78871;SDS011;68247;43.514;1.502;2024-03-02T00:36:07;10.82;;;6.57;;
78871;SDS011;68247;43.514;1.502;2024-03-02T00:38:33;13.85;;;6.60;;
78871;SDS011;68247;43.514;1.502;2024-03-02T00:41:08;16.05;;;6.97;;
78871;SDS011;68247;43.514;1.502;2024-03-02T00:43:42;11.25;;;6.90;;
78871;SDS011;68247;43.514;1.502;2024-03-02T00:46:23;11.68;;;6.63;;
78871;SDS011;68247;43.514;1.502;2024-03-02T00:48:53;13.73;;;6.83;;
78871;SDS011;68247;43.514;1.502;2024-03-02T00:51:20;12.38;;;6.80;;
78871;SDS011;68247;43.514;1.502;2024-03-02T00:53:46;13.77;;;7.10;;
78871;SDS011;68247;43.514;1.502;2024-03-02T00:56:12;14.43;;;7.13;;
78871;SDS011;68247;43.514;1.502;2024-03-02T00:58:39;13.33;;;6.80;;
78871;SDS011;68247;43.514;1.502;2024-03-02T01:01:04;12.77;;;6.47;;
78871;SDS011;68247;43.514;1.502;2024-03-02T01:03:31;11.80;;;6.77;;
78871;SDS011;68247;43.514;1.502;2024-03-02T01:05:56;13.70;;;7.10;;
78871;SDS011;68247;43.514;1.502;2024-03-02T01:08:23;11.40;;;6.80;;
78871;SDS011;68247;43.514;1.502;2024-03-02T01:10:49;13.07;;;7.05;;
78871;SDS011;68247;43.514;1.502;2024-03-02T01:13:14;13.37;;;6.83;;
78871;SDS011;68247;43.514;1.502;2024-03-02T01:15:40;11.00;;;6.95;;
78871;SDS011;68247;43.514;1.502;2024-03-02T01:18:05;11.70;;;6.53;;
78871;SDS011;68247;43.514;1.502;2024-03-02T01:20:31;10.90;;;5.97;;
78871;SDS011;68247;43.514;1.502;2024-03-02T01:22:56;11.07;;;6.35;;
78871;SDS011;68247;43.514;1.502;2024-03-02T01:25:22;12.75;;;7.03;;
78871;SDS011;68247;43.514;1.502;2024-03-02T01:27:47;11.03;;;6.30;;
78871;SDS011;68247;43.514;1.502;2024-03-02T01:30:13;11.70;;;6.10;;
78871;SDS011;68247;43.514;1.502;2024-03-02T01:32:38;12.50;;;6.45;;
78871;SDS011;68247;43.514;1.502;2024-03-02T01:35:04;11.73;;;6.55;;
78871;SDS011;68247;43.514;1.502;2024-03-02T01:37:30;12.40;;;7.22;;
78871;SDS011;68247;43.514;1.502;2024-03-02T01:39:55;14.17;;;7.30;;
78871;SDS011;68247;43.514;1.502;2024-03-02T01:42:21;12.43;;;6.90;;
78871;SDS011;68247;43.514;1.502;2024-03-02T01:44:47;13.45;;;7.18;;
78871;SDS011;68247;43.514;1.502;2024-03-02T01:47:12;13.23;;;6.93;;
78871;SDS011;68247;43.514;1.502;2024-03-02T01:49:38;12.80;;;7.03;;
78871;SDS011;68247;43.514;1.502;2024-03-02T01:52:05;11.93;;;7.13;;
78871;SDS011;68247;43.514;1.502;2024-03-02T01:54:31;11.10;;;6.45;;
78871;SDS011;68247;43.514;1.502;2024-03-02T01:56:57;13.00;;;7.30;;
78871;SDS011;68247;43.514;1.502;2024-03-02T01:59:22;12.80;;;7.07;;
78871;SDS011;68247;43.514;1.502;2024-03-02T02:01:47;12.45;;;7.05;;
78871;SDS011;68247;43.514;1.502;2024-03-02T02:04:13;11.97;;;7.90;;
78871;SDS011;68247;43.514;1.502;2024-03-02T02:06:38;15.30;;;6.97;;
78871;SDS011;68247;43.514;1.502;2024-03-02T02:09:04;13.43;;;7.60;;
78871;SDS011;68247;43.514;1.502;2024-03-02T02:11:29;11.70;;;6.87;;
78871;SDS011;68247;43.514;1.502;2024-03-02T02:13:55;11.27;;;6.88;;
78871;SDS011;68247;43.514;1.502;2024-03-02T02:16:20;10.23;;;5.50;;
78871;SDS011;68247;43.514;1.502;2024-03-02T02:18:46;11.07;;;5.50;;
78871;SDS011;68247;43.514;1.502;2024-03-02T02:21:12;11.17;;;5.10;;
78871;SDS011;68247;43.514;1.502;2024-03-02T02:23:37;8.57;;;4.93;;
78871;SDS011;68247;43.514;1.502;2024-03-02T02:26:03;9.00;;;4.60;;
78871;SDS011;68247;43.514;1.502;2024-03-02T02:28:29;8.20;;;4.80;;
78871;SDS011;68247;43.514;1.502;2024-03-02T02:30:54;7.78;;;4.30;;
78871;SDS011;68247;43.514;1.502;2024-03-02T02:33:21;8.45;;;4.47;;
78871;SDS011;68247;43.514;1.502;2024-03-02T02:35:47;8.60;;;4.80;;
78871;SDS011;68247;43.514;1.502;2024-03-02T02:38:12;7.23;;;3.90;;
78871;SDS011;68247;43.514;1.502;2024-03-02T02:40:37;7.07;;;4.25;;
78871;SDS011;68247;43.514;1.502;2024-03-02T02:43:03;7.90;;;4.20;;
78871;SDS011;68247;43.514;1.502;2024-03-02T02:45:28;8.73;;;4.10;;
78871;SDS011;68247;43.514;1.502;2024-03-02T02:47:54;8.60;;;4.63;;
78871;SDS011;68247;43.514;1.502;2024-03-02T02:50:19;7.18;;;4.03;;
78871;SDS011;68247;43.514;1.502;2024-03-02T02:52:45;9.15;;;4.20;;
78871;SDS011;68247;43.514;1.502;2024-03-02T02:55:11;9.30;;;4.70;;
78871;SDS011;68247;43.514;1.502;2024-03-02T02:57:38;8.00;;;5.00;;
78871;SDS011;68247;43.514;1.502;2024-03-02T03:00:06;10.18;;;5.50;;
78871;SDS011;68247;43.514;1.502;2024-03-02T03:02:38;10.53;;;6.60;;
78871;SDS011;68247;43.514;1.502;2024-03-02T03:05:07;11.32;;;6.35;;
78871;SDS011;68247;43.514;1.502;2024-03-02T03:07:33;12.73;;;6.03;;
78871;SDS011;68247;43.514;1.502;2024-03-02T03:10:00;12.05;;;7.30;;
78871;SDS011;68247;43.514;1.502;2024-03-02T03:12:26;10.43;;;6.03;;
78871;SDS011;68247;43.514;1.502;2024-03-02T03:14:51;10.83;;;5.50;;
78871;SDS011;68247;43.514;1.502;2024-03-02T03:17:17;10.77;;;5.47;;
78871;SDS011;68247;43.514;1.502;2024-03-02T03:19:43;10.93;;;6.55;;
78871;SDS011;68247;43.514;1.502;2024-03-02T03:22:08;8.07;;;4.30;;
78871;SDS011;68247;43.514;1.502;2024-03-02T03:24:34;10.60;;;4.55;;
78871;SDS011;68247;43.514;1.502;2024-03-02T03:26:59;8.53;;;4.20;;
78871;SDS011;68247;43.514;1.502;2024-03-02T03:29:25;10.00;;;4.13;;
78871;SDS011;68247;43.514;1.502;2024-03-02T03:31:50;7.60;;;3.33;;
78871;SDS011;68247;43.514;1.502;2024-03-02T03:34:15;7.90;;;3.73;;
78871;SDS011;68247;43.514;1.502;2024-03-02T03:36:41;8.90;;;4.15;;
78871;SDS011;68247;43.514;1.502;2024-03-02T03:39:07;9.23;;;5.00;;
78871;SDS011;68247;43.514;1.502;2024-03-02T03:41:32;6.85;;;4.20;;
78871;SDS011;68247;43.514;1.502;2024-03-02T03:43:58;9.87;;;4.80;;
78871;SDS011;68247;43.514;1.502;2024-03-02T03:46:23;8.33;;;4.67;;
78871;SDS011;68247;43.514;1.502;2024-03-02T03:48:49;8.73;;;5.15;;
78871;SDS011;68247;43.514;1.502;2024-03-02T03:51:14;8.55;;;4.80;;
78871;SDS011;68247;43.514;1.502;2024-03-02T03:53:39;10.40;;;5.37;;
78871;SDS011;68247;43.514;1.502;2024-03-02T03:56:05;9.67;;;5.20;;
78871;SDS011;68247;43.514;1.502;2024-03-02T03:58:30;8.82;;;4.90;;
78871;SDS011;68247;43.514;1.502;2024-03-02T04:00:56;8.93;;;4.57;;
78871;SDS011;68247;43.514;1.502;2024-03-02T04:03:21;9.57;;;4.53;;
78871;SDS011;68247;43.514;1.502;2024-03-02T04:05:47;10.70;;;4.80;;
78871;SDS011;68247;43.514;1.502;2024-03-02T04:08:12;9.60;;;4.30;;
78871;SDS011;68247;43.514;1.502;2024-03-02T04:10:38;8.85;;;4.40;;
78871;SDS011;68247;43.514;1.502;2024-03-02T04:13:03;8.53;;;4.10;;
78871;SDS011;68247;43.514;1.502;2024-03-02T04:15:29;8.80;;;4.07;;
78871;SDS011;68247;43.514;1.502;2024-03-02T04:17:54;7.05;;;4.43;;
78871;SDS011;68247;43.514;1.502;2024-03-02T04:20:20;9.73;;;4.67;;
78871;SDS011;68247;43.514;1.502;2024-03-02T04:22:45;9.07;;;4.35;;
78871;SDS011;68247;43.514;1.502;2024-03-02T04:25:11;10.33;;;4.50;;
78871;SDS011;68247;43.514;1.502;2024-03-02T04:27:36;10.30;;;4.93;;
78871;SDS011;68247;43.514;1.502;2024-03-02T04:30:02;9.33;;;4.93;;
78871;SDS011;68247;43.514;1.502;2024-03-02T04:32:30;11.98;;;5.57;;
78871;SDS011;68247;43.514;1.502;2024-03-02T04:34:56;9.25;;;5.07;;
78871;SDS011;68247;43.514;1.502;2024-03-02T04:37:22;7.83;;;4.50;;
78871;SDS011;68247;43.514;1.502;2024-03-02T04:39:47;12.10;;;6.40;;
78871;SDS011;68247;43.514;1.502;2024-03-02T04:42:12;8.40;;;4.72;;
78871;SDS011;68247;43.514;1.502;2024-03-02T04:44:38;10.23;;;4.33;;
78871;SDS011;68247;43.514;1.502;2024-03-02T04:47:04;9.97;;;4.53;;
78871;SDS011;68247;43.514;1.502;2024-03-02T04:49:29;8.38;;;4.38;;
78871;SDS011;68247;43.514;1.502;2024-03-02T04:51:55;7.70;;;4.53;;
78871;SDS011;68247;43.514;1.502;2024-03-02T04:54:21;8.18;;;4.65;;
78871;SDS011;68247;43.514;1.502;2024-03-02T04:56:47;9.07;;;4.47;;
78871;SDS011;68247;43.514;1.502;2024-03-02T04:59:16;9.00;;;4.78;;
78871;SDS011;68247;43.514;1.502;2024-03-02T05:01:42;10.90;;;4.35;;
78871;SDS011;68247;43.514;1.502;2024-03-02T05:04:08;10.88;;;4.75;;
78871;SDS011;68247;43.514;1.502;2024-03-02T05:06:35;9.73;;;4.47;;
78871;SDS011;68247;43.514;1.502;2024-03-02T05:09:01;9.87;;;4.70;;
78871;SDS011;68247;43.514;1.502;2024-03-02T05:11:26;10.20;;;4.53;;
78871;SDS011;68247;43.514;1.502;2024-03-02T05:14:14;7.50;;;4.22;;
78871;SDS011;68247;43.514;1.502;2024-03-02T05:16:40;9.15;;;4.40;;
78871;SDS011;68247;43.514;1.502;2024-03-02T05:19:06;7.43;;;4.53;;
78871;SDS011;68247;43.514;1.502;2024-03-02T05:21:32;7.70;;;4.22;;
78871;SDS011;68247;43.514;1.502;2024-03-02T05:23:58;8.55;;;4.40;;
78871;SDS011;68247;43.514;1.502;2024-03-02T05:26:24;7.60;;;4.63;;
78871;SDS011;68247;43.514;1.502;2024-03-02T05:28:49;10.30;;;4.80;;
78871;SDS011;68247;43.514;1.502;2024-03-02T05:31:14;9.57;;;4.50;;
78871;SDS011;68247;43.514;1.502;2024-03-02T05:33:40;8.87;;;4.40;;
78871;SDS011;68247;43.514;1.502;2024-03-02T05:36:06;9.77;;;4.53;;
78871;SDS011;68247;43.514;1.502;2024-03-02T05:38:32;8.45;;;4.55;;
78871;SDS011;68247;43.514;1.502;2024-03-02T05:40:59;8.45;;;4.72;;
78871;SDS011;68247;43.514;1.502;2024-03-02T05:43:24;7.77;;;4.13;;
78871;SDS011;68247;43.514;1.502;2024-03-02T05:45:50;8.90;;;4.10;;
78871;SDS011;68247;43.514;1.502;2024-03-02T05:48:15;9.25;;;4.35;;
78871;SDS011;68247;43.514;1.502;2024-03-02T05:50:41;8.97;;;4.23;;
78871;SDS011;68247;43.514;1.502;2024-03-02T05:53:06;8.00;;;4.30;;
78871;SDS011;68247;43.514;1.502;2024-03-02T05:55:32;8.43;;;4.47;;
78871;SDS011;68247;43.514;1.502;2024-03-02T05:57:58;8.37;;;4.20;;
78871;SDS011;68247;43.514;1.502;2024-03-02T06:00:23;8.13;;;4.23;;
78871;SDS011;68247;43.514;1.502;2024-03-02T06:02:48;8.27;;;4.82;;
78871;SDS011;68247;43.514;1.502;2024-03-02T06:05:14;9.53;;;3.90;;
78871;SDS011;68247;43.514;1.502;2024-03-02T06:07:40;8.07;;;4.20;;
78871;SDS011;68247;43.514;1.502;2024-03-02T06:10:06;9.37;;;4.57;;
78871;SDS011;68247;43.514;1.502;2024-03-02T06:12:33;9.52;;;4.20;;
78871;SDS011;68247;43.514;1.502;2024-03-02T06:14:59;7.97;;;4.53;;
78871;SDS011;68247;43.514;1.502;2024-03-02T06:17:25;7.60;;;4.17;;
78871;SDS011;68247;43.514;1.502;2024-03-02T06:19:50;9.13;;;4.80;;
78871;SDS011;68247;43.514;1.502;2024-03-02T06:22:15;8.40;;;4.57;;
78871;SDS011;68247;43.514;1.502;2024-03-02T06:24:41;7.67;;;4.73;;
78871;SDS011;68247;43.514;1.502;2024-03-02T06:27:07;8.93;;;4.57;;
78871;SDS011;68247;43.514;1.502;2024-03-02T06:29:32;9.73;;;4.67;;
78871;SDS011;68247;43.514;1.502;2024-03-02T06:31:59;8.13;;;4.40;;
78871;SDS011;68247;43.514;1.502;2024-03-02T06:34:24;8.63;;;4.70;;
78871;SDS011;68247;43.514;1.502;2024-03-02T06:36:49;9.23;;;4.30;;
78871;SDS011;68247;43.514;1.502;2024-03-02T06:39:15;9.07;;;4.50;;
78871;SDS011;68247;43.514;1.502;2024-03-02T06:41:40;8.13;;;4.30;;
78871;SDS011;68247;43.514;1.502;2024-03-02T06:44:07;11.82;;;5.60;;
78871;SDS011;68247;43.514;1.502;2024-03-02T06:46:33;10.83;;;5.77;;
78871;SDS011;68247;43.514;1.502;2024-03-02T06:48:58;16.80;;;6.90;;
78871;SDS011;68247;43.514;1.502;2024-03-02T06:51:24;13.77;;;7.70;;
78871;SDS011;68247;43.514;1.502;2024-03-02T06:53:49;11.57;;;6.07;;
78871;SDS011;68247;43.514;1.502;2024-03-02T06:56:15;11.90;;;5.47;;
78871;SDS011;68247;43.514;1.502;2024-03-02T06:58:41;9.13;;;4.85;;
78871;SDS011;68247;43.514;1.502;2024-03-02T07:01:07;7.63;;;4.25;;
78871;SDS011;68247;43.514;1.502;2024-03-02T07:03:33;16.07;;;5.80;;
78871;SDS011;68247;43.514;1.502;2024-03-02T07:05:58;11.87;;;5.90;;
78871;SDS011;68247;43.514;1.502;2024-03-02T07:08:24;9.20;;;4.60;;
78871;SDS011;68247;43.514;1.502;2024-03-02T07:10:49;8.15;;;4.50;;
78871;SDS011;68247;43.514;1.502;2024-03-02T07:13:14;8.20;;;4.40;;
78871;SDS011;68247;43.514;1.502;2024-03-02T07:15:40;8.77;;;4.30;;
78871;SDS011;68247;43.514;1.502;2024-03-02T07:18:24;10.00;;;4.70;;
78871;SDS011;68247;43.514;1.502;2024-03-02T07:20:50;8.07;;;4.40;;
78871;SDS011;68247;43.514;1.502;2024-03-02T07:23:15;7.83;;;4.07;;
78871;SDS011;68247;43.514;1.502;2024-03-02T07:25:40;8.33;;;4.23;;
78871;SDS011;68247;43.514;1.502;2024-03-02T07:28:06;7.80;;;3.80;;
78871;SDS011;68247;43.514;1.502;2024-03-02T07:30:32;9.55;;;4.50;;
78871;SDS011;68247;43.514;1.502;2024-03-02T07:32:58;6.38;;;3.50;;
78871;SDS011;68247;43.514;1.502;2024-03-02T07:35:24;9.45;;;4.18;;
78871;SDS011;68247;43.514;1.502;2024-03-02T07:37:52;8.10;;;4.25;;
78871;SDS011;68247;43.514;1.502;2024-03-02T07:40:18;8.82;;;4.75;;
78871;SDS011;68247;43.514;1.502;2024-03-02T07:42:45;9.52;;;4.70;;
78871;SDS011;68247;43.514;1.502;2024-03-02T07:45:10;8.35;;;4.30;;
78871;SDS011;68247;43.514;1.502;2024-03-02T07:47:36;7.30;;;3.70;;
78871;SDS011;68247;43.514;1.502;2024-03-02T07:50:02;9.35;;;4.13;;
78871;SDS011;68247;43.514;1.502;2024-03-02T07:52:27;7.23;;;3.83;;
78871;SDS011;68247;43.514;1.502;2024-03-02T07:54:53;5.78;;;3.45;;
78871;SDS011;68247;43.514;1.502;2024-03-02T07:57:19;7.50;;;4.30;;
78871;SDS011;68247;43.514;1.502;2024-03-02T07:59:44;7.22;;;4.18;;
78871;SDS011;68247;43.514;1.502;2024-03-02T08:02:10;8.07;;;3.80;;
78871;SDS011;68247;43.514;1.502;2024-03-02T08:04:35;7.80;;;4.20;;
78871;SDS011;68247;43.514;1.502;2024-03-02T08:07:02;9.05;;;3.92;;
78871;SDS011;68247;43.514;1.502;2024-03-02T08:09:28;7.95;;;4.05;;
78871;SDS011;68247;43.514;1.502;2024-03-02T08:11:53;6.40;;;3.80;;
78871;SDS011;68247;43.514;1.502;2024-03-02T08:14:19;9.27;;;3.87;;
78871;SDS011;68247;43.514;1.502;2024-03-02T08:16:44;8.10;;;3.97;;
78871;SDS011;68247;43.514;1.502;2024-03-02T08:19:10;8.00;;;3.60;;
78871;SDS011;68247;43.514;1.502;2024-03-02T08:21:36;8.07;;;3.80;;
78871;SDS011;68247;43.514;1.502;2024-03-02T08:24:02;7.13;;;3.53;;
78871;SDS011;68247;43.514;1.502;2024-03-02T08:26:27;7.97;;;3.20;;
78871;SDS011;68247;43.514;1.502;2024-03-02T08:28:57;7.70;;;3.40;;
78871;SDS011;68247;43.514;1.502;2024-03-02T08:31:26;5.23;;;3.23;;
78871;SDS011;68247;43.514;1.502;2024-03-02T08:33:52;7.72;;;3.58;;
78871;SDS011;68247;43.514;1.502;2024-03-02T08:36:18;7.93;;;3.43;;
78871;SDS011;68247;43.514;1.502;2024-03-02T08:38:44;6.55;;;3.70;;
78871;SDS011;68247;43.514;1.502;2024-03-02T08:41:10;6.82;;;3.40;;
78871;SDS011;68247;43.514;1.502;2024-03-02T08:43:38;7.20;;;3.43;;
78871;SDS011;68247;43.514;1.502;2024-03-02T08:46:03;9.07;;;3.30;;
78871;SDS011;68247;43.514;1.502;2024-03-02T08:48:29;6.57;;;3.40;;
78871;SDS011;68247;43.514;1.502;2024-03-02T08:50:54;6.47;;;3.37;;
78871;SDS011;68247;43.514;1.502;2024-03-02T08:53:20;8.68;;;3.55;;
78871;SDS011;68247;43.514;1.502;2024-03-02T08:55:45;8.32;;;3.40;;
78871;SDS011;68247;43.514;1.502;2024-03-02T08:58:11;7.55;;;3.85;;
78871;SDS011;68247;43.514;1.502;2024-03-02T09:00:37;5.80;;;3.10;;
78871;SDS011;68247;43.514;1.502;2024-03-02T09:03:03;9.10;;;3.20;;
78871;SDS011;68247;43.514;1.502;2024-03-02T09:05:28;8.93;;;3.08;;
78871;SDS011;68247;43.514;1.502;2024-03-02T09:07:54;8.00;;;3.50;;
78871;SDS011;68247;43.514;1.502;2024-03-02T09:10:19;7.90;;;3.00;;
78871;SDS011;68247;43.514;1.502;2024-03-02T09:12:44;5.93;;;3.38;;
78871;SDS011;68247;43.514;1.502;2024-03-02T09:15:10;5.97;;;3.47;;
78871;SDS011;68247;43.514;1.502;2024-03-02T09:17:35;7.30;;;3.30;;
78871;SDS011;68247;43.514;1.502;2024-03-02T09:20:01;5.07;;;3.00;;
78871;SDS011;68247;43.514;1.502;2024-03-02T09:22:26;10.07;;;3.73;;
78871;SDS011;68247;43.514;1.502;2024-03-02T09:24:51;8.35;;;3.30;;
78871;SDS011;68247;43.514;1.502;2024-03-02T09:27:17;8.87;;;3.63;;
78871;SDS011;68247;43.514;1.502;2024-03-02T09:29:42;6.40;;;3.53;;
78871;SDS011;68247;43.514;1.502;2024-03-02T09:32:08;8.97;;;3.53;;
78871;SDS011;68247;43.514;1.502;2024-03-02T09:34:37;6.93;;;3.22;;
78871;SDS011;68247;43.514;1.502;2024-03-02T09:37:02;8.07;;;3.57;;
78871;SDS011;68247;43.514;1.502;2024-03-02T09:39:29;8.52;;;3.92;;
78871;SDS011;68247;43.514;1.502;2024-03-02T09:41:54;7.00;;;3.33;;
78871;SDS011;68247;43.514;1.502;2024-03-02T09:44:20;8.20;;;3.10;;
78871;SDS011;68247;43.514;1.502;2024-03-02T09:46:50;10.18;;;3.30;;
78871;SDS011;68247;43.514;1.502;2024-03-02T09:49:16;8.33;;;3.47;;
78871;SDS011;68247;43.514;1.502;2024-03-02T09:51:46;7.60;;;3.67;;
78871;SDS011;68247;43.514;1.502;2024-03-02T09:54:12;9.00;;;3.70;;
78871;SDS011;68247;43.514;1.502;2024-03-02T09:56:38;8.67;;;3.70;;
78871;SDS011;68247;43.514;1.502;2024-03-02T09:59:04;8.88;;;3.63;;
78871;SDS011;68247;43.514;1.502;2024-03-02T10:01:30;11.13;;;3.93;;
78871;SDS011;68247;43.514;1.502;2024-03-02T10:03:57;10.68;;;4.25;;
78871;SDS011;68247;43.514;1.502;2024-03-02T10:06:25;12.82;;;4.50;;
78871;SDS011;68247;43.514;1.502;2024-03-02T10:08:51;9.55;;;3.83;;
78871;SDS011;68247;43.514;1.502;2024-03-02T10:11:27;10.15;;;3.75;;
78871;SDS011;68247;43.514;1.502;2024-03-02T10:14:11;9.48;;;3.97;;
78871;SDS011;68247;43.514;1.502;2024-03-02T10:21:49;14.87;;;3.77;;
78871;SDS011;68247;43.514;1.502;2024-03-02T10:24:16;9.35;;;3.78;;
78871;SDS011;68247;43.514;1.502;2024-03-02T10:26:42;8.93;;;4.13;;
78871;SDS011;68247;43.514;1.502;2024-03-02T10:29:08;11.33;;;3.57;;
78871;SDS011;68247;43.514;1.502;2024-03-02T10:31:41;8.95;;;3.80;;
78871;SDS011;68247;43.514;1.502;2024-03-02T10:34:07;15.18;;;4.22;;
78871;SDS011;68247;43.514;1.502;2024-03-02T10:36:33;9.18;;;4.38;;
78871;SDS011;68247;43.514;1.502;2024-03-02T10:39:01;10.00;;;4.00;;
78871;SDS011;68247;43.514;1.502;2024-03-02T10:41:28;9.70;;;4.23;;
78871;SDS011;68247;43.514;1.502;2024-03-02T10:44:05;9.77;;;4.00;;
78871;SDS011;68247;43.514;1.502;2024-03-02T10:46:33;10.95;;;3.92;;
78871;SDS011;68247;43.514;1.502;2024-03-02T10:49:00;10.93;;;3.90;;
78871;SDS011;68247;43.514;1.502;2024-03-02T10:51:26;13.38;;;4.30;;
78871;SDS011;68247;43.514;1.502;2024-03-02T10:53:54;11.20;;;3.90;;
78871;SDS011;68247;43.514;1.502;2024-03-02T10:56:29;8.95;;;3.70;;
78871;SDS011;68247;43.514;1.502;2024-03-02T10:59:01;11.60;;;4.20;;
78871;SDS011;68247;43.514;1.502;2024-03-02T11:01:39;8.65;;;3.65;;
78871;SDS011;68247;43.514;1.502;2024-03-02T11:04:04;11.43;;;4.00;;
78871;SDS011;68247;43.514;1.502;2024-03-02T11:06:32;8.02;;;3.50;;
78871;SDS011;68247;43.514;1.502;2024-03-02T11:09:03;10.88;;;3.70;;
78871;SDS011;68247;43.514;1.502;2024-03-02T11:11:33;7.10;;;3.03;;
78871;SDS011;68247;43.514;1.502;2024-03-02T11:14:01;8.38;;;3.63;;
78871;SDS011;68247;43.514;1.502;2024-03-02T11:16:36;9.25;;;3.20;;
78871;SDS011;68247;43.514;1.502;2024-03-02T11:19:06;8.82;;;3.60;;
78871;SDS011;68247;43.514;1.502;2024-03-02T11:21:36;10.15;;;3.80;;
78871;SDS011;68247;43.514;1.502;2024-03-02T11:24:45;7.90;;;3.42;;
78871;SDS011;68247;43.514;1.502;2024-03-02T11:27:01;9.00;;;3.47;;
78871;SDS011;68247;43.514;1.502;2024-03-02T11:32:02;6.82;;;2.83;;
78871;SDS011;68247;43.514;1.502;2024-03-02T11:34:35;8.98;;;2.90;;
78871;SDS011;68247;43.514;1.502;2024-03-02T11:37:01;9.40;;;3.20;;
78871;SDS011;68247;43.514;1.502;2024-03-02T11:39:27;7.22;;;3.00;;
78871;SDS011;68247;43.514;1.502;2024-03-02T11:41:53;10.55;;;3.55;;
78871;SDS011;68247;43.514;1.502;2024-03-02T11:44:19;8.43;;;3.58;;
78871;SDS011;68247;43.514;1.502;2024-03-02T11:46:45;9.80;;;3.30;;
78871;SDS011;68247;43.514;1.502;2024-03-02T11:49:15;9.82;;;3.65;;
78871;SDS011;68247;43.514;1.502;2024-03-02T11:51:50;11.75;;;3.67;;
78871;SDS011;68247;43.514;1.502;2024-03-02T11:54:18;10.05;;;3.80;;
78871;SDS011;68247;43.514;1.502;2024-03-02T11:56:44;9.50;;;4.00;;
78871;SDS011;68247;43.514;1.502;2024-03-02T11:59:09;7.03;;;3.88;;
78871;SDS011;68247;43.514;1.502;2024-03-02T12:01:35;8.03;;;3.63;;
78871;SDS011;68247;43.514;1.502;2024-03-02T12:04:01;8.90;;;3.60;;
78871;SDS011;68247;43.514;1.502;2024-03-02T12:06:26;10.32;;;3.88;;
78871;SDS011;68247;43.514;1.502;2024-03-02T12:08:53;8.13;;;3.70;;
78871;SDS011;68247;43.514;1.502;2024-03-02T12:11:20;9.57;;;4.07;;
78871;SDS011;68247;43.514;1.502;2024-03-02T12:13:52;8.32;;;3.60;;
78871;SDS011;68247;43.514;1.502;2024-03-02T12:16:23;8.10;;;3.70;;
78871;SDS011;68247;43.514;1.502;2024-03-02T12:18:49;9.88;;;3.70;;
78871;SDS011;68247;43.514;1.502;2024-03-02T12:21:15;9.43;;;3.83;;
78871;SDS011;68247;43.514;1.502;2024-03-02T12:23:40;8.38;;;3.80;;
78871;SDS011;68247;43.514;1.502;2024-03-02T12:26:06;12.83;;;4.20;;
78871;SDS011;68247;43.514;1.502;2024-03-02T12:28:32;10.10;;;3.73;;
78871;SDS011;68247;43.514;1.502;2024-03-02T12:30:58;13.07;;;4.20;;
78871;SDS011;68247;43.514;1.502;2024-03-02T12:33:24;11.10;;;3.80;;
78871;SDS011;68247;43.514;1.502;2024-03-02T12:35:49;6.90;;;3.80;;
78871;SDS011;68247;43.514;1.502;2024-03-02T12:38:16;10.05;;;4.07;;
78871;SDS011;68247;43.514;1.502;2024-03-02T12:40:41;8.60;;;3.93;;
78871;SDS011;68247;43.514;1.502;2024-03-02T12:43:07;10.37;;;3.70;;
78871;SDS011;68247;43.514;1.502;2024-03-02T12:45:33;11.07;;;3.37;;
78871;SDS011;68247;43.514;1.502;2024-03-02T12:47:59;7.68;;;3.10;;
78871;SDS011;68247;43.514;1.502;2024-03-02T12:50:25;9.00;;;3.60;;
78871;SDS011;68247;43.514;1.502;2024-03-02T12:52:54;7.67;;;3.00;;
78871;SDS011;68247;43.514;1.502;2024-03-02T12:55:20;8.38;;;3.22;;
78871;SDS011;68247;43.514;1.502;2024-03-02T12:57:50;6.43;;;3.40;;
78871;SDS011;68247;43.514;1.502;2024-03-02T13:00:17;7.32;;;3.60;;
78871;SDS011;68247;43.514;1.502;2024-03-02T13:02:45;8.18;;;3.47;;
78871;SDS011;68247;43.514;1.502;2024-03-02T13:05:11;8.23;;;3.50;;
78871;SDS011;68247;43.514;1.502;2024-03-02T13:07:36;9.60;;;3.55;;
78871;SDS011;68247;43.514;1.502;2024-03-02T13:10:02;7.40;;;3.27;;
78871;SDS011;68247;43.514;1.502;2024-03-02T13:12:29;10.23;;;4.20;;
78871;SDS011;68247;43.514;1.502;2024-03-02T13:14:55;7.95;;;3.22;;
78871;SDS011;68247;43.514;1.502;2024-03-02T13:17:23;7.07;;;3.58;;
78871;SDS011;68247;43.514;1.502;2024-03-02T13:19:58;8.10;;;3.77;;
78871;SDS011;68247;43.514;1.502;2024-03-02T13:22:24;7.72;;;3.33;;
78871;SDS011;68247;43.514;1.502;2024-03-02T13:24:50;7.47;;;3.13;;
78871;SDS011;68247;43.514;1.502;2024-03-02T13:27:16;6.57;;;3.45;;
78871;SDS011;68247;43.514;1.502;2024-03-02T13:29:45;8.13;;;3.30;;
78871;SDS011;68247;43.514;1.502;2024-03-02T13:32:12;7.68;;;3.40;;
78871;SDS011;68247;43.514;1.502;2024-03-02T13:34:38;7.57;;;3.05;;
78871;SDS011;68247;43.514;1.502;2024-03-02T13:37:03;9.57;;;3.63;;
78871;SDS011;68247;43.514;1.502;2024-03-02T13:39:30;6.20;;;3.35;;
78871;SDS011;68247;43.514;1.502;2024-03-02T13:41:57;7.97;;;3.27;;
78871;SDS011;68247;43.514;1.502;2024-03-02T13:44:29;8.18;;;3.10;;
78871;SDS011;68247;43.514;1.502;2024-03-02T13:46:55;8.93;;;3.05;;
78871;SDS011;68247;43.514;1.502;2024-03-02T13:49:20;6.60;;;3.10;;
78871;SDS011;68247;43.514;1.502;2024-03-02T13:51:45;9.67;;;2.90;;
78871;SDS011;68247;43.514;1.502;2024-03-02T13:54:11;9.00;;;3.10;;
78871;SDS011;68247;43.514;1.502;2024-03-02T13:56:37;9.10;;;3.08;;
78871;SDS011;68247;43.514;1.502;2024-03-02T13:59:04;7.95;;;3.50;;
78871;SDS011;68247;43.514;1.502;2024-03-02T14:01:30;7.40;;;2.90;;
78871;SDS011;68247;43.514;1.502;2024-03-02T14:03:56;7.27;;;3.00;;
78871;SDS011;68247;43.514;1.502;2024-03-02T14:06:21;8.37;;;3.10;;
78871;SDS011;68247;43.514;1.502;2024-03-02T14:08:47;8.43;;;3.15;;
78871;SDS011;68247;43.514;1.502;2024-03-02T14:11:13;7.63;;;3.00;;
78871;SDS011;68247;43.514;1.502;2024-03-02T14:13:43;8.77;;;4.15;;
78871;SDS011;68247;43.514;1.502;2024-03-02T14:16:12;6.63;;;3.25;;
78871;SDS011;68247;43.514;1.502;2024-03-02T14:18:37;8.17;;;2.90;;
78871;SDS011;68247;43.514;1.502;2024-03-02T14:21:03;8.87;;;3.63;;
78871;SDS011;68247;43.514;1.502;2024-03-02T14:23:28;7.50;;;3.33;;
78871;SDS011;68247;43.514;1.502;2024-03-02T14:25:54;9.38;;;3.55;;
78871;SDS011;68247;43.514;1.502;2024-03-02T14:28:20;9.47;;;3.60;;
78871;SDS011;68247;43.514;1.502;2024-03-02T14:30:46;7.20;;;3.17;;
78871;SDS011;68247;43.514;1.502;2024-03-02T14:33:11;8.00;;;3.33;;
78871;SDS011;68247;43.514;1.502;2024-03-02T14:35:36;7.60;;;3.10;;
78871;SDS011;68247;43.514;1.502;2024-03-02T14:38:02;8.57;;;3.50;;
78871;SDS011;68247;43.514;1.502;2024-03-02T14:40:27;6.25;;;2.92;;
78871;SDS011;68247;43.514;1.502;2024-03-02T14:42:54;8.27;;;3.35;;
78871;SDS011;68247;43.514;1.502;2024-03-02T14:45:20;9.13;;;3.03;;
78871;SDS011;68247;43.514;1.502;2024-03-02T14:47:45;6.97;;;2.87;;
78871;SDS011;68247;43.514;1.502;2024-03-02T14:50:11;8.20;;;3.07;;
78871;SDS011;68247;43.514;1.502;2024-03-02T14:52:36;7.82;;;2.95;;